Harvard, Nebraska
Current Conditions -  °F | °C
As of 6:53 AM on Friday 28 Nov 2014 (Local Time) from KHSI Reporting Station
Clear Clear  
Wind Chill: 26°   Ceiling: Unl
Heat Index: 31°   Visibility: 10mi
Dew Point: 23°   Wind: 5mph
Humidity: 72%   Direction: 230°SW
Pressure: 29.85"   Gusts: NA
Location:  40.62°N, 98.1°W
Report Text: KHSI 281253Z AUTO 23004KT 10SM CLR M01/M05 A2985 RMK AO2 SLP124 T10061050
Loading
Personal Weather Stations






























Interactive Weather Map New forecast layout! Learn more

10-Day Weather Forecast

Advertisements
Track Severe Weather on mobile